sensor_id;sensor_type;location;lat;lon;timestamp;P1;durP1;ratioP1;P2;durP2;ratioP2
70560;SDS011;58109;53.570;10.084;2023-01-06T00:02:11;10.40;;;2.67;;
70560;SDS011;58109;53.570;10.084;2023-01-06T00:04:39;13.53;;;2.90;;
70560;SDS011;58109;53.570;10.084;2023-01-06T00:07:04;12.00;;;4.40;;
70560;SDS011;58109;53.570;10.084;2023-01-06T00:09:29;9.40;;;3.60;;
70560;SDS011;58109;53.570;10.084;2023-01-06T00:11:58;22.13;;;4.20;;
70560;SDS011;58109;53.570;10.084;2023-01-06T00:14:24;12.50;;;4.27;;
70560;SDS011;58109;53.570;10.084;2023-01-06T00:16:49;19.63;;;5.13;;
70560;SDS011;58109;53.570;10.084;2023-01-06T00:19:14;10.70;;;4.50;;
70560;SDS011;58109;53.570;10.084;2023-01-06T00:21:40;14.63;;;5.50;;
70560;SDS011;58109;53.570;10.084;2023-01-06T00:24:06;13.43;;;5.27;;
70560;SDS011;58109;53.570;10.084;2023-01-06T00:26:32;17.30;;;5.20;;
70560;SDS011;58109;53.570;10.084;2023-01-06T00:28:58;12.20;;;5.73;;
70560;SDS011;58109;53.570;10.084;2023-01-06T00:31:23;23.57;;;6.43;;
70560;SDS011;58109;53.570;10.084;2023-01-06T00:33:49;21.20;;;6.40;;
70560;SDS011;58109;53.570;10.084;2023-01-06T00:36:14;18.60;;;5.77;;
70560;SDS011;58109;53.570;10.084;2023-01-06T00:38:40;20.30;;;6.57;;
70560;SDS011;58109;53.570;10.084;2023-01-06T00:41:06;22.43;;;6.33;;
70560;SDS011;58109;53.570;10.084;2023-01-06T00:43:52;17.63;;;6.97;;
70560;SDS011;58109;53.570;10.084;2023-01-06T00:46:20;22.23;;;7.47;;
70560;SDS011;58109;53.570;10.084;2023-01-06T00:48:46;21.63;;;7.20;;
70560;SDS011;58109;53.570;10.084;2023-01-06T00:51:11;16.70;;;6.90;;
70560;SDS011;58109;53.570;10.084;2023-01-06T00:53:39;21.57;;;7.57;;
70560;SDS011;58109;53.570;10.084;2023-01-06T00:56:07;17.90;;;7.07;;
70560;SDS011;58109;53.570;10.084;2023-01-06T00:58:32;23.60;;;7.70;;
70560;SDS011;58109;53.570;10.084;2023-01-06T01:00:58;30.43;;;7.70;;
70560;SDS011;58109;53.570;10.084;2023-01-06T01:03:29;19.30;;;6.47;;
70560;SDS011;58109;53.570;10.084;2023-01-06T01:05:59;26.83;;;7.20;;
70560;SDS011;58109;53.570;10.084;2023-01-06T01:08:25;24.63;;;7.53;;
70560;SDS011;58109;53.570;10.084;2023-01-06T01:10:50;29.20;;;7.57;;
70560;SDS011;58109;53.570;10.084;2023-01-06T01:13:18;19.63;;;7.23;;
70560;SDS011;58109;53.570;10.084;2023-01-06T01:15:43;21.30;;;7.20;;
70560;SDS011;58109;53.570;10.084;2023-01-06T01:18:09;23.60;;;8.47;;
70560;SDS011;58109;53.570;10.084;2023-01-06T01:20:34;23.20;;;7.60;;
70560;SDS011;58109;53.570;10.084;2023-01-06T01:22:59;20.00;;;6.33;;
70560;SDS011;58109;53.570;10.084;2023-01-06T01:25:25;21.67;;;7.87;;
70560;SDS011;58109;53.570;10.084;2023-01-06T01:27:50;25.23;;;8.10;;
70560;SDS011;58109;53.570;10.084;2023-01-06T01:30:16;24.03;;;7.90;;
70560;SDS011;58109;53.570;10.084;2023-01-06T01:32:42;16.13;;;7.27;;
70560;SDS011;58109;53.570;10.084;2023-01-06T01:35:10;18.50;;;7.20;;
70560;SDS011;58109;53.570;10.084;2023-01-06T01:37:35;21.87;;;7.90;;
70560;SDS011;58109;53.570;10.084;2023-01-06T01:40:01;23.00;;;8.83;;
70560;SDS011;58109;53.570;10.084;2023-01-06T01:42:29;21.37;;;7.83;;
70560;SDS011;58109;53.570;10.084;2023-01-06T01:47:34;20.70;;;8.57;;
70560;SDS011;58109;53.570;10.084;2023-01-06T01:50:08;14.00;;;7.70;;
70560;SDS011;58109;53.570;10.084;2023-01-06T01:52:44;19.10;;;8.53;;
70560;SDS011;58109;53.570;10.084;2023-01-06T01:55:12;18.07;;;7.50;;
70560;SDS011;58109;53.570;10.084;2023-01-06T01:57:51;25.83;;;8.97;;
70560;SDS011;58109;53.570;10.084;2023-01-06T02:00:20;18.00;;;7.30;;
70560;SDS011;58109;53.570;10.084;2023-01-06T02:02:46;19.00;;;9.07;;
70560;SDS011;58109;53.570;10.084;2023-01-06T02:05:14;17.23;;;8.20;;
70560;SDS011;58109;53.570;10.084;2023-01-06T02:07:41;23.97;;;9.60;;
70560;SDS011;58109;53.570;10.084;2023-01-06T02:10:10;20.20;;;8.73;;
70560;SDS011;58109;53.570;10.084;2023-01-06T02:12:37;18.13;;;9.03;;
70560;SDS011;58109;53.570;10.084;2023-01-06T02:15:13;25.23;;;9.10;;
70560;SDS011;58109;53.570;10.084;2023-01-06T02:42:19;18.67;;;8.10;;
70560;SDS011;58109;53.570;10.084;2023-01-06T02:45:20;14.47;;;7.70;;
70560;SDS011;58109;53.570;10.084;2023-01-06T02:50:41;12.20;;;7.33;;
70560;SDS011;58109;53.570;10.084;2023-01-06T02:53:15;14.77;;;7.67;;
70560;SDS011;58109;53.570;10.084;2023-01-06T02:55:46;11.53;;;7.83;;
70560;SDS011;58109;53.570;10.084;2023-01-06T02:58:19;14.30;;;6.93;;
70560;SDS011;58109;53.570;10.084;2023-01-06T03:01:08;16.77;;;9.00;;
70560;SDS011;58109;53.570;10.084;2023-01-06T03:03:36;29.83;;;11.27;;
70560;SDS011;58109;53.570;10.084;2023-01-06T03:06:06;22.23;;;9.70;;
70560;SDS011;58109;53.570;10.084;2023-01-06T03:08:34;20.60;;;9.60;;
70560;SDS011;58109;53.570;10.084;2023-01-06T03:11:00;18.83;;;9.17;;
70560;SDS011;58109;53.570;10.084;2023-01-06T03:16:03;18.00;;;9.07;;
70560;SDS011;58109;53.570;10.084;2023-01-06T03:18:29;20.63;;;9.50;;
70560;SDS011;58109;53.570;10.084;2023-01-06T03:20:55;17.67;;;8.60;;
70560;SDS011;58109;53.570;10.084;2023-01-06T03:23:23;18.83;;;8.43;;
70560;SDS011;58109;53.570;10.084;2023-01-06T03:25:48;20.63;;;9.57;;
70560;SDS011;58109;53.570;10.084;2023-01-06T03:28:14;17.20;;;9.13;;
70560;SDS011;58109;53.570;10.084;2023-01-06T03:30:45;17.90;;;9.37;;
70560;SDS011;58109;53.570;10.084;2023-01-06T03:33:21;15.30;;;9.23;;
70560;SDS011;58109;53.570;10.084;2023-01-06T03:38:40;16.63;;;9.23;;
70560;SDS011;58109;53.570;10.084;2023-01-06T03:41:15;17.60;;;10.70;;
70560;SDS011;58109;53.570;10.084;2023-01-06T03:46:21;23.83;;;12.20;;
70560;SDS011;58109;53.570;10.084;2023-01-06T03:57:20;27.40;;;13.30;;
70560;SDS011;58109;53.570;10.084;2023-01-06T03:59:56;21.97;;;11.87;;
70560;SDS011;58109;53.570;10.084;2023-01-06T04:02:25;28.87;;;14.10;;
70560;SDS011;58109;53.570;10.084;2023-01-06T04:05:01;20.80;;;11.90;;
70560;SDS011;58109;53.570;10.084;2023-01-06T04:07:38;29.67;;;14.30;;
70560;SDS011;58109;53.570;10.084;2023-01-06T04:10:04;25.13;;;12.73;;
70560;SDS011;58109;53.570;10.084;2023-01-06T04:12:30;26.13;;;13.90;;
70560;SDS011;58109;53.570;10.084;2023-01-06T04:15:04;34.43;;;14.63;;
70560;SDS011;58109;53.570;10.084;2023-01-06T04:17:31;35.93;;;15.00;;
70560;SDS011;58109;53.570;10.084;2023-01-06T04:19:56;27.67;;;12.50;;
70560;SDS011;58109;53.570;10.084;2023-01-06T04:22:24;30.43;;;13.60;;
70560;SDS011;58109;53.570;10.084;2023-01-06T04:24:49;29.27;;;12.93;;
70560;SDS011;58109;53.570;10.084;2023-01-06T04:27:15;44.87;;;14.57;;
70560;SDS011;58109;53.570;10.084;2023-01-06T04:29:40;39.07;;;14.17;;
70560;SDS011;58109;53.570;10.084;2023-01-06T04:32:08;32.90;;;14.17;;
70560;SDS011;58109;53.570;10.084;2023-01-06T04:34:34;28.63;;;13.63;;
70560;SDS011;58109;53.570;10.084;2023-01-06T04:36:59;33.77;;;14.73;;
70560;SDS011;58109;53.570;10.084;2023-01-06T04:39:24;35.27;;;14.47;;
70560;SDS011;58109;53.570;10.084;2023-01-06T04:41:50;34.00;;;14.20;;
70560;SDS011;58109;53.570;10.084;2023-01-06T04:44:15;33.40;;;14.80;;
70560;SDS011;58109;53.570;10.084;2023-01-06T04:46:41;34.60;;;15.20;;
70560;SDS011;58109;53.570;10.084;2023-01-06T04:49:06;35.37;;;13.30;;
70560;SDS011;58109;53.570;10.084;2023-01-06T04:51:32;25.83;;;13.93;;
70560;SDS011;58109;53.570;10.084;2023-01-06T04:53:57;34.97;;;14.90;;
70560;SDS011;58109;53.570;10.084;2023-01-06T04:56:22;29.53;;;13.40;;
70560;SDS011;58109;53.570;10.084;2023-01-06T04:58:51;32.30;;;15.17;;
70560;SDS011;58109;53.570;10.084;2023-01-06T05:01:18;39.43;;;16.17;;
70560;SDS011;58109;53.570;10.084;2023-01-06T05:03:44;34.33;;;15.50;;
70560;SDS011;58109;53.570;10.084;2023-01-06T05:06:10;42.03;;;15.30;;
70560;SDS011;58109;53.570;10.084;2023-01-06T05:08:39;35.20;;;15.90;;
70560;SDS011;58109;53.570;10.084;2023-01-06T05:11:15;39.80;;;16.03;;
70560;SDS011;58109;53.570;10.084;2023-01-06T05:13:47;35.80;;;15.60;;
70560;SDS011;58109;53.570;10.084;2023-01-06T05:16:13;44.00;;;16.60;;
70560;SDS011;58109;53.570;10.084;2023-01-06T05:18:48;41.63;;;18.00;;
70560;SDS011;58109;53.570;10.084;2023-01-06T05:21:14;40.57;;;17.10;;
70560;SDS011;58109;53.570;10.084;2023-01-06T05:23:42;37.97;;;16.90;;
70560;SDS011;58109;53.570;10.084;2023-01-06T05:26:08;43.57;;;18.17;;
70560;SDS011;58109;53.570;10.084;2023-01-06T05:28:36;37.43;;;16.90;;
70560;SDS011;58109;53.570;10.084;2023-01-06T05:31:02;39.20;;;18.80;;
70560;SDS011;58109;53.570;10.084;2023-01-06T05:33:29;45.37;;;17.57;;
70560;SDS011;58109;53.570;10.084;2023-01-06T05:35:59;52.47;;;19.73;;
70560;SDS011;58109;53.570;10.084;2023-01-06T05:38:25;48.17;;;18.00;;
70560;SDS011;58109;53.570;10.084;2023-01-06T05:40:51;46.40;;;18.80;;
70560;SDS011;58109;53.570;10.084;2023-01-06T05:43:17;37.90;;;16.93;;
70560;SDS011;58109;53.570;10.084;2023-01-06T05:45:44;48.57;;;18.47;;
70560;SDS011;58109;53.570;10.084;2023-01-06T05:48:10;44.17;;;18.50;;
70560;SDS011;58109;53.570;10.084;2023-01-06T05:50:35;49.80;;;18.80;;
70560;SDS011;58109;53.570;10.084;2023-01-06T05:53:03;52.63;;;19.30;;
70560;SDS011;58109;53.570;10.084;2023-01-06T05:55:28;40.20;;;18.63;;
70560;SDS011;58109;53.570;10.084;2023-01-06T05:57:56;38.83;;;18.77;;
70560;SDS011;58109;53.570;10.084;2023-01-06T06:00:21;47.47;;;20.40;;
70560;SDS011;58109;53.570;10.084;2023-01-06T06:02:47;43.07;;;19.17;;
70560;SDS011;58109;53.570;10.084;2023-01-06T06:05:15;41.60;;;19.60;;
70560;SDS011;58109;53.570;10.084;2023-01-06T06:07:40;44.10;;;19.50;;
70560;SDS011;58109;53.570;10.084;2023-01-06T06:10:06;44.23;;;19.50;;
70560;SDS011;58109;53.570;10.084;2023-01-06T06:12:34;38.07;;;18.53;;
70560;SDS011;58109;53.570;10.084;2023-01-06T06:15:03;42.57;;;19.57;;
70560;SDS011;58109;53.570;10.084;2023-01-06T06:17:29;46.60;;;20.37;;
70560;SDS011;58109;53.570;10.084;2023-01-06T06:19:55;43.33;;;21.20;;
70560;SDS011;58109;53.570;10.084;2023-01-06T06:22:20;42.57;;;20.00;;
70560;SDS011;58109;53.570;10.084;2023-01-06T06:24:48;45.00;;;19.10;;
70560;SDS011;58109;53.570;10.084;2023-01-06T06:27:13;50.13;;;22.03;;
70560;SDS011;58109;53.570;10.084;2023-01-06T06:29:41;48.33;;;21.77;;
70560;SDS011;58109;53.570;10.084;2023-01-06T06:32:07;41.07;;;22.10;;
70560;SDS011;58109;53.570;10.084;2023-01-06T06:34:32;44.47;;;22.40;;
70560;SDS011;58109;53.570;10.084;2023-01-06T06:36:57;48.50;;;22.20;;
70560;SDS011;58109;53.570;10.084;2023-01-06T06:39:23;44.40;;;21.67;;
70560;SDS011;58109;53.570;10.084;2023-01-06T06:41:50;45.83;;;22.50;;
70560;SDS011;58109;53.570;10.084;2023-01-06T06:44:16;45.13;;;21.80;;
70560;SDS011;58109;53.570;10.084;2023-01-06T06:46:41;49.67;;;23.80;;
70560;SDS011;58109;53.570;10.084;2023-01-06T06:49:07;48.17;;;20.77;;
70560;SDS011;58109;53.570;10.084;2023-01-06T06:51:35;42.17;;;22.20;;
70560;SDS011;58109;53.570;10.084;2023-01-06T06:54:00;47.63;;;22.13;;
70560;SDS011;58109;53.570;10.084;2023-01-06T06:56:25;43.73;;;20.57;;
70560;SDS011;58109;53.570;10.084;2023-01-06T06:58:53;45.83;;;22.17;;
70560;SDS011;58109;53.570;10.084;2023-01-06T07:01:19;39.47;;;21.20;;
70560;SDS011;58109;53.570;10.084;2023-01-06T07:03:45;44.47;;;21.57;;
70560;SDS011;58109;53.570;10.084;2023-01-06T07:06:14;52.57;;;21.40;;
70560;SDS011;58109;53.570;10.084;2023-01-06T07:08:42;43.17;;;21.73;;
70560;SDS011;58109;53.570;10.084;2023-01-06T07:11:08;43.00;;;21.40;;
70560;SDS011;58109;53.570;10.084;2023-01-06T07:13:36;40.43;;;20.80;;
70560;SDS011;58109;53.570;10.084;2023-01-06T07:16:04;46.37;;;20.93;;
70560;SDS011;58109;53.570;10.084;2023-01-06T07:18:32;40.50;;;20.57;;
70560;SDS011;58109;53.570;10.084;2023-01-06T07:20:59;35.23;;;21.70;;
70560;SDS011;58109;53.570;10.084;2023-01-06T07:23:25;32.60;;;19.37;;
70560;SDS011;58109;53.570;10.084;2023-01-06T07:25:54;32.93;;;19.00;;
70560;SDS011;58109;53.570;10.084;2023-01-06T07:28:24;36.80;;;19.83;;
70560;SDS011;58109;53.570;10.084;2023-01-06T07:30:52;33.67;;;18.83;;
70560;SDS011;58109;53.570;10.084;2023-01-06T07:33:18;28.27;;;17.33;;
70560;SDS011;58109;53.570;10.084;2023-01-06T07:35:43;32.70;;;18.20;;
70560;SDS011;58109;53.570;10.084;2023-01-06T07:38:11;40.23;;;17.70;;
70560;SDS011;58109;53.570;10.084;2023-01-06T07:40:36;38.17;;;16.83;;
70560;SDS011;58109;53.570;10.084;2023-01-06T07:43:06;32.13;;;18.60;;
70560;SDS011;58109;53.570;10.084;2023-01-06T07:45:32;32.83;;;19.00;;
70560;SDS011;58109;53.570;10.084;2023-01-06T07:47:58;36.17;;;18.20;;
70560;SDS011;58109;53.570;10.084;2023-01-06T07:50:23;33.40;;;18.50;;
70560;SDS011;58109;53.570;10.084;2023-01-06T07:52:49;29.83;;;16.77;;
70560;SDS011;58109;53.570;10.084;2023-01-06T07:55:14;31.77;;;16.53;;
70560;SDS011;58109;53.570;10.084;2023-01-06T07:57:40;32.00;;;17.60;;
70560;SDS011;58109;53.570;10.084;2023-01-06T08:00:05;26.20;;;16.93;;
70560;SDS011;58109;53.570;10.084;2023-01-06T08:02:34;30.77;;;18.10;;
70560;SDS011;58109;53.570;10.084;2023-01-06T08:05:00;36.97;;;17.93;;
70560;SDS011;58109;53.570;10.084;2023-01-06T08:07:25;27.83;;;17.27;;
70560;SDS011;58109;53.570;10.084;2023-01-06T08:09:50;27.80;;;16.80;;
70560;SDS011;58109;53.570;10.084;2023-01-06T08:12:16;36.40;;;18.63;;
70560;SDS011;58109;53.570;10.084;2023-01-06T08:14:42;31.63;;;17.53;;
70560;SDS011;58109;53.570;10.084;2023-01-06T08:17:07;28.03;;;17.13;;
70560;SDS011;58109;53.570;10.084;2023-01-06T08:19:33;27.27;;;17.57;;
70560;SDS011;58109;53.570;10.084;2023-01-06T08:21:58;33.53;;;17.07;;
70560;SDS011;58109;53.570;10.084;2023-01-06T08:24:28;27.60;;;16.70;;
70560;SDS011;58109;53.570;10.084;2023-01-06T08:26:57;27.07;;;17.30;;
70560;SDS011;58109;53.570;10.084;2023-01-06T08:29:23;27.30;;;16.90;;
70560;SDS011;58109;53.570;10.084;2023-01-06T08:31:49;24.40;;;15.33;;
70560;SDS011;58109;53.570;10.084;2023-01-06T08:34:14;26.77;;;14.97;;
70560;SDS011;58109;53.570;10.084;2023-01-06T08:36:40;21.70;;;13.87;;
70560;SDS011;58109;53.570;10.084;2023-01-06T08:39:09;21.90;;;13.50;;
70560;SDS011;58109;53.570;10.084;2023-01-06T08:41:34;29.53;;;14.20;;
70560;SDS011;58109;53.570;10.084;2023-01-06T08:44:05;24.80;;;12.10;;
70560;SDS011;58109;53.570;10.084;2023-01-06T08:46:36;23.30;;;12.40;;
70560;SDS011;58109;53.570;10.084;2023-01-06T08:49:04;19.40;;;12.40;;
70560;SDS011;58109;53.570;10.084;2023-01-06T08:51:33;19.33;;;11.60;;
70560;SDS011;58109;53.570;10.084;2023-01-06T08:53:59;20.40;;;11.30;;
70560;SDS011;58109;53.570;10.084;2023-01-06T08:56:26;17.93;;;11.90;;
70560;SDS011;58109;53.570;10.084;2023-01-06T08:58:59;16.43;;;10.30;;
70560;SDS011;58109;53.570;10.084;2023-01-06T09:01:27;18.50;;;11.70;;
70560;SDS011;58109;53.570;10.084;2023-01-06T09:03:54;12.40;;;10.20;;
70560;SDS011;58109;53.570;10.084;2023-01-06T09:06:20;27.63;;;11.13;;
70560;SDS011;58109;53.570;10.084;2023-01-06T09:08:46;13.53;;;9.77;;
70560;SDS011;58109;53.570;10.084;2023-01-06T09:11:12;18.13;;;10.73;;
70560;SDS011;58109;53.570;10.084;2023-01-06T09:13:38;18.73;;;9.80;;
70560;SDS011;58109;53.570;10.084;2023-01-06T09:16:04;17.50;;;9.30;;
70560;SDS011;58109;53.570;10.084;2023-01-06T09:18:31;12.10;;;7.83;;
70560;SDS011;58109;53.570;10.084;2023-01-06T09:20:59;16.37;;;8.30;;
70560;SDS011;58109;53.570;10.084;2023-01-06T09:23:27;13.33;;;7.93;;
70560;SDS011;58109;53.570;10.084;2023-01-06T09:25:54;13.60;;;7.90;;
70560;SDS011;58109;53.570;10.084;2023-01-06T09:28:20;14.27;;;7.60;;
70560;SDS011;58109;53.570;10.084;2023-01-06T09:30:48;14.90;;;7.70;;
70560;SDS011;58109;53.570;10.084;2023-01-06T09:33:14;11.03;;;7.57;;
70560;SDS011;58109;53.570;10.084;2023-01-06T09:35:39;10.20;;;6.50;;
70560;SDS011;58109;53.570;10.084;2023-01-06T09:38:05;13.37;;;6.93;;
70560;SDS011;58109;53.570;10.084;2023-01-06T09:40:33;11.27;;;6.90;;
70560;SDS011;58109;53.570;10.084;2023-01-06T09:43:37;11.60;;;6.80;;
70560;SDS011;58109;53.570;10.084;2023-01-06T09:46:09;12.30;;;7.00;;
70560;SDS011;58109;53.570;10.084;2023-01-06T09:48:49;11.70;;;6.13;;
70560;SDS011;58109;53.570;10.084;2023-01-06T09:51:38;10.77;;;6.53;;
70560;SDS011;58109;53.570;10.084;2023-01-06T09:54:21;6.90;;;5.10;;
70560;SDS011;58109;53.570;10.084;2023-01-06T09:57:01;9.70;;;5.03;;
70560;SDS011;58109;53.570;10.084;2023-01-06T09:59:31;8.10;;;4.93;;
70560;SDS011;58109;53.570;10.084;2023-01-06T10:02:01;7.17;;;5.27;;
70560;SDS011;58109;53.570;10.084;2023-01-06T10:04:28;9.07;;;5.57;;
70560;SDS011;58109;53.570;10.084;2023-01-06T10:09:48;8.13;;;4.63;;
70560;SDS011;58109;53.570;10.084;2023-01-06T10:12:23;7.67;;;4.50;;
70560;SDS011;58109;53.570;10.084;2023-01-06T10:23:28;5.90;;;3.40;;
70560;SDS011;58109;53.570;10.084;2023-01-06T10:26:41;7.67;;;3.77;;
70560;SDS011;58109;53.570;10.084;2023-01-06T10:28:47;8.20;;;3.67;;
70560;SDS011;58109;53.570;10.084;2023-01-06T10:31:18;5.80;;;3.90;;
70560;SDS011;58109;53.570;10.084;2023-01-06T10:33:47;5.47;;;4.70;;
70560;SDS011;58109;53.570;10.084;2023-01-06T10:36:15;8.00;;;3.60;;
70560;SDS011;58109;53.570;10.084;2023-01-06T10:38:45;6.73;;;3.93;;
70560;SDS011;58109;53.570;10.084;2023-01-06T10:44:10;9.07;;;4.20;;
70560;SDS011;58109;53.570;10.084;2023-01-06T10:46:37;6.03;;;4.37;;
70560;SDS011;58109;53.570;10.084;2023-01-06T10:49:03;5.60;;;4.37;;
70560;SDS011;58109;53.570;10.084;2023-01-06T10:51:41;5.80;;;4.27;;
70560;SDS011;58109;53.570;10.084;2023-01-06T10:54:19;7.87;;;4.60;;
70560;SDS011;58109;53.570;10.084;2023-01-06T10:56:50;6.07;;;5.47;;
70560;SDS011;58109;53.570;10.084;2023-01-06T10:59:18;5.40;;;4.90;;
70560;SDS011;58109;53.570;10.084;2023-01-06T11:01:46;8.93;;;4.17;;
70560;SDS011;58109;53.570;10.084;2023-01-06T11:04:15;8.27;;;4.90;;
70560;SDS011;58109;53.570;10.084;2023-01-06T11:12:22;10.50;;;4.57;;
70560;SDS011;58109;53.570;10.084;2023-01-06T11:14:57;9.10;;;5.40;;
70560;SDS011;58109;53.570;10.084;2023-01-06T11:17:26;8.70;;;5.47;;
70560;SDS011;58109;53.570;10.084;2023-01-06T11:20:10;7.45;;;5.60;;
70560;SDS011;58109;53.570;10.084;2023-01-06T11:22:52;5.83;;;3.57;;
70560;SDS011;58109;53.570;10.084;2023-01-06T11:27:46;4.63;;;3.17;;
70560;SDS011;58109;53.570;10.084;2023-01-06T11:30:46;4.70;;;3.07;;
70560;SDS011;58109;53.570;10.084;2023-01-06T11:33:30;2.50;;;2.30;;
70560;SDS011;58109;53.570;10.084;2023-01-06T11:35:56;2.83;;;2.50;;
70560;SDS011;58109;53.570;10.084;2023-01-06T11:38:28;3.07;;;2.07;;
70560;SDS011;58109;53.570;10.084;2023-01-06T11:40:56;3.73;;;2.30;;
70560;SDS011;58109;53.570;10.084;2023-01-06T11:45:55;4.20;;;2.30;;
70560;SDS011;58109;53.570;10.084;2023-01-06T11:48:30;2.47;;;1.73;;
70560;SDS011;58109;53.570;10.084;2023-01-06T11:50:57;7.20;;;1.53;;
70560;SDS011;58109;53.570;10.084;2023-01-06T11:53:27;3.80;;;2.07;;
70560;SDS011;58109;53.570;10.084;2023-01-06T11:55:58;2.63;;;1.80;;
70560;SDS011;58109;53.570;10.084;2023-01-06T12:03:51;4.90;;;1.30;;
70560;SDS011;58109;53.570;10.084;2023-01-06T12:06:27;5.03;;;1.47;;
70560;SDS011;58109;53.570;10.084;2023-01-06T12:09:02;2.70;;;1.00;;
70560;SDS011;58109;53.570;10.084;2023-01-06T12:11:48;6.43;;;1.47;;
70560;SDS011;58109;53.570;10.084;2023-01-06T12:14:15;2.20;;;1.00;;
70560;SDS011;58109;53.570;10.084;2023-01-06T12:19:15;4.00;;;1.43;;
70560;SDS011;58109;53.570;10.084;2023-01-06T12:21:43;6.93;;;1.50;;
70560;SDS011;58109;53.570;10.084;2023-01-06T12:24:10;5.47;;;1.13;;
70560;SDS011;58109;53.570;10.084;2023-01-06T12:26:38;5.80;;;1.30;;
70560;SDS011;58109;53.570;10.084;2023-01-06T12:29:04;3.57;;;1.40;;
70560;SDS011;58109;53.570;10.084;2023-01-06T12:36:54;8.80;;;1.73;;
70560;SDS011;58109;53.570;10.084;2023-01-06T12:45:13;7.97;;;1.50;;
70560;SDS011;58109;53.570;10.084;2023-01-06T12:52:53;9.33;;;1.93;;
70560;SDS011;58109;53.570;10.084;2023-01-06T12:55:28;3.50;;;1.13;;
70560;SDS011;58109;53.570;10.084;2023-01-06T12:58:16;5.90;;;1.57;;
70560;SDS011;58109;53.570;10.084;2023-01-06T13:00:53;4.97;;;1.40;;
70560;SDS011;58109;53.570;10.084;2023-01-06T13:06:16;6.90;;;2.03;;
70560;SDS011;58109;53.570;10.084;2023-01-06T13:19:40;11.47;;;1.73;;
70560;SDS011;58109;53.570;10.084;2023-01-06T13:22:34;5.10;;;1.47;;
70560;SDS011;58109;53.570;10.084;2023-01-06T13:41:36;7.03;;;1.83;;
70560;SDS011;58109;53.570;10.084;2023-01-06T13:44:04;6.63;;;1.60;;
70560;SDS011;58109;53.570;10.084;2023-01-06T13:46:31;9.97;;;1.77;;
70560;SDS011;58109;53.570;10.084;2023-01-06T13:48:58;6.10;;;1.90;;
70560;SDS011;58109;53.570;10.084;2023-01-06T13:51:28;5.87;;;1.30;;
70560;SDS011;58109;53.570;10.084;2023-01-06T13:53:57;14.60;;;1.90;;
70560;SDS011;58109;53.570;10.084;2023-01-06T13:56:28;4.83;;;1.40;;
70560;SDS011;58109;53.570;10.084;2023-01-06T13:59:15;12.63;;;1.63;;
70560;SDS011;58109;53.570;10.084;2023-01-06T14:01:42;6.57;;;1.93;;
70560;SDS011;58109;53.570;10.084;2023-01-06T14:07:05;8.80;;;2.03;;
70560;SDS011;58109;53.570;10.084;2023-01-06T14:09:35;3.50;;;1.20;;
70560;SDS011;58109;53.570;10.084;2023-01-06T14:12:09;5.40;;;1.80;;
70560;SDS011;58109;53.570;10.084;2023-01-06T14:14:39;15.53;;;1.93;;
70560;SDS011;58109;53.570;10.084;2023-01-06T14:17:05;9.77;;;1.70;;
70560;SDS011;58109;53.570;10.084;2023-01-06T14:19:51;11.97;;;1.67;;
70560;SDS011;58109;53.570;10.084;2023-01-06T14:24:57;6.00;;;1.30;;
70560;SDS011;58109;53.570;10.084;2023-01-06T14:35:35;6.47;;;1.70;;
70560;SDS011;58109;53.570;10.084;2023-01-06T14:38:04;16.13;;;2.20;;
70560;SDS011;58109;53.570;10.084;2023-01-06T14:40:45;7.17;;;1.67;;
70560;SDS011;58109;53.570;10.084;2023-01-06T14:46:14;6.90;;;1.70;;
70560;SDS011;58109;53.570;10.084;2023-01-06T14:48:46;25.93;;;2.40;;
70560;SDS011;58109;53.570;10.084;2023-01-06T14:51:16;7.50;;;1.77;;
70560;SDS011;58109;53.570;10.084;2023-01-06T14:53:46;9.77;;;1.30;;
70560;SDS011;58109;53.570;10.084;2023-01-06T14:56:18;9.43;;;1.50;;
70560;SDS011;58109;53.570;10.084;2023-01-06T14:58:46;8.13;;;1.80;;
70560;SDS011;58109;53.570;10.084;2023-01-06T15:01:23;11.80;;;1.83;;
70560;SDS011;58109;53.570;10.084;2023-01-06T15:03:58;7.37;;;1.47;;
70560;SDS011;58109;53.570;10.084;2023-01-06T15:06:25;14.23;;;2.33;;
70560;SDS011;58109;53.570;10.084;2023-01-06T15:08:52;14.57;;;2.23;;
70560;SDS011;58109;53.570;10.084;2023-01-06T15:11:28;6.97;;;1.73;;
70560;SDS011;58109;53.570;10.084;2023-01-06T15:13:54;19.60;;;2.33;;
70560;SDS011;58109;53.570;10.084;2023-01-06T15:16:27;10.80;;;1.47;;
70560;SDS011;58109;53.570;10.084;2023-01-06T15:19:07;11.27;;;1.57;;
70560;SDS011;58109;53.570;10.084;2023-01-06T15:21:38;5.43;;;1.40;;
70560;SDS011;58109;53.570;10.084;2023-01-06T15:24:04;10.23;;;2.10;;
70560;SDS011;58109;53.570;10.084;2023-01-06T15:26:30;9.73;;;1.40;;
70560;SDS011;58109;53.570;10.084;2023-01-06T15:28:57;7.83;;;1.50;;
70560;SDS011;58109;53.570;10.084;2023-01-06T15:31:31;11.30;;;1.40;;
70560;SDS011;58109;53.570;10.084;2023-01-06T15:36:45;6.70;;;1.23;;
70560;SDS011;58109;53.570;10.084;2023-01-06T15:39:13;6.20;;;1.43;;
70560;SDS011;58109;53.570;10.084;2023-01-06T15:41:40;7.93;;;1.93;;
70560;SDS011;58109;53.570;10.084;2023-01-06T15:46:46;10.30;;;1.50;;
70560;SDS011;58109;53.570;10.084;2023-01-06T15:49:26;9.67;;;1.50;;
70560;SDS011;58109;53.570;10.084;2023-01-06T15:51:54;7.73;;;1.87;;
70560;SDS011;58109;53.570;10.084;2023-01-06T15:54:27;7.97;;;1.60;;
70560;SDS011;58109;53.570;10.084;2023-01-06T15:56:54;12.30;;;1.57;;
70560;SDS011;58109;53.570;10.084;2023-01-06T15:59:20;11.60;;;1.67;;
70560;SDS011;58109;53.570;10.084;2023-01-06T16:01:49;13.23;;;1.80;;
70560;SDS011;58109;53.570;10.084;2023-01-06T16:04:17;11.30;;;1.83;;
70560;SDS011;58109;53.570;10.084;2023-01-06T16:06:43;6.80;;;2.50;;
70560;SDS011;58109;53.570;10.084;2023-01-06T16:09:15;8.80;;;2.43;;
70560;SDS011;58109;53.570;10.084;2023-01-06T16:11:53;6.90;;;2.10;;
70560;SDS011;58109;53.570;10.084;2023-01-06T16:14:38;13.60;;;3.90;;
70560;SDS011;58109;53.570;10.084;2023-01-06T16:20:17;13.10;;;2.10;;
70560;SDS011;58109;53.570;10.084;2023-01-06T16:22:50;5.10;;;2.10;;
70560;SDS011;58109;53.570;10.084;2023-01-06T16:27:48;7.00;;;2.43;;
70560;SDS011;58109;53.570;10.084;2023-01-06T16:32:44;8.27;;;1.60;;
70560;SDS011;58109;53.570;10.084;2023-01-06T16:37:36;8.17;;;1.87;;
70560;SDS011;58109;53.570;10.084;2023-01-06T16:40:01;6.77;;;1.67;;
70560;SDS011;58109;53.570;10.084;2023-01-06T16:45:17;12.30;;;1.80;;
70560;SDS011;58109;53.570;10.084;2023-01-06T16:47:46;8.70;;;2.00;;
70560;SDS011;58109;53.570;10.084;2023-01-06T16:50:17;12.73;;;2.30;;
70560;SDS011;58109;53.570;10.084;2023-01-06T16:52:46;12.97;;;1.30;;
70560;SDS011;58109;53.570;10.084;2023-01-06T16:55:15;9.83;;;2.73;;
70560;SDS011;58109;53.570;10.084;2023-01-06T16:57:44;12.83;;;1.97;;
70560;SDS011;58109;53.570;10.084;2023-01-06T17:00:11;8.23;;;1.90;;
70560;SDS011;58109;53.570;10.084;2023-01-06T17:02:38;14.63;;;1.93;;
70560;SDS011;58109;53.570;10.084;2023-01-06T17:05:08;7.10;;;1.80;;
70560;SDS011;58109;53.570;10.084;2023-01-06T17:07:43;13.10;;;2.97;;
70560;SDS011;58109;53.570;10.084;2023-01-06T17:10:12;12.83;;;2.43;;
70560;SDS011;58109;53.570;10.084;2023-01-06T17:12:38;6.03;;;1.37;;
70560;SDS011;58109;53.570;10.084;2023-01-06T17:15:22;10.73;;;2.30;;